Time;durP1;ratioP1;P1;durP2;ratioP2;P2;SDS_P1;SDS_P2;PMS_P1;PMS_P2;Temp;Humidity;BMP_temperature;BMP_pressure;BME280_temperature;BME280_humidity;BME280_pressure;Samples;Min_cycle;Max_cycle;Signal;HPM_P1;HPM_P2
2023/02/15 00:01:30;;;;;;;19.30;14.97;;;;;;;1.24;100.00;151688.06;5006421;28;20922;-86
2023/02/15 00:03:57;;;;;;;20.30;16.23;;;;;;;1.23;100.00;151685.53;4997027;28;21099;-86
2023/02/15 00:06:24;;;;;;;20.97;14.73;;;;;;;1.17;100.00;151668.78;4990309;28;20552;-86
2023/02/15 00:08:51;;;;;;;18.43;14.10;;;;;;;1.14;100.00;151662.38;4976092;28;20533;-86
2023/02/15 00:11:39;;;;;;;18.97;13.43;;;;;;;1.13;100.00;151659.84;4975040;28;20448;-86
2023/02/15 00:14:06;;;;;;;20.37;14.17;;;;;;;1.11;100.00;151654.66;4980183;28;20469;-86
2023/02/15 00:16:35;;;;;;;19.23;14.30;;;;;;;1.08;100.00;151647.00;4996074;28;20457;-86
2023/02/15 00:19:02;;;;;;;20.40;14.73;;;;;;;1.00;100.00;151626.44;4997322;28;20948;-86
2023/02/15 00:21:29;;;;;;;18.00;14.23;;;;;;;1.02;100.00;151631.56;4996974;28;20449;-86
2023/02/15 00:23:56;;;;;;;18.80;14.70;;;;;;;0.98;100.00;151620.03;4987091;28;20442;-87
2023/02/15 00:26:23;;;;;;;18.63;13.93;;;;;;;0.91;100.00;151603.31;4992001;28;20482;-86
2023/02/15 00:28:49;;;;;;;19.57;15.17;;;;;;;0.92;100.00;151604.59;4971730;28;20452;-86
2023/02/15 00:31:16;;;;;;;18.00;13.73;;;;;;;0.90;100.00;151600.72;4985665;28;20459;-87
2023/02/15 00:33:44;;;;;;;19.27;14.73;;;;;;;0.88;100.00;151595.59;4996482;28;20450;-86
2023/02/15 00:36:11;;;;;;;19.93;15.57;;;;;;;0.85;100.00;151587.88;5003474;28;20491;-86
2023/02/15 00:38:38;;;;;;;17.50;13.43;;;;;;;0.83;100.00;151582.75;5004994;28;20419;-86
2023/02/15 00:41:06;;;;;;;19.50;13.63;;;;;;;0.78;100.00;151569.91;5015847;28;20457;-87
2023/02/15 00:43:35;;;;;;;19.63;14.63;;;;;;;0.76;100.00;151564.81;5000238;28;20461;-86
2023/02/15 00:46:02;;;;;;;20.03;13.17;;;;;;;0.76;100.00;151564.81;4982364;28;20474;-87
2023/02/15 00:48:28;;;;;;;19.27;14.27;;;;;;;0.79;100.00;151572.50;4999520;28;20437;-86
2023/02/15 00:50:58;;;;;;;18.80;14.00;;;;;;;0.76;100.00;151564.81;4995156;28;20852;-86
2023/02/15 00:53:25;;;;;;;19.03;14.70;;;;;;;0.70;100.00;151549.38;4997196;28;20537;-86
2023/02/15 00:55:53;;;;;;;21.20;14.47;;;;;;;0.66;100.00;151539.13;4981507;28;20470;-85
2023/02/15 00:58:19;;;;;;;21.87;14.60;;;;;;;0.64;100.00;151533.94;4987661;28;20457;-86
2023/02/15 01:00:47;;;;;;;19.57;15.43;;;;;;;0.61;100.00;151527.53;4993371;28;20491;-86
2023/02/15 01:03:15;;;;;;;21.13;14.20;;;;;;;0.60;100.00;151523.72;4978671;28;20545;-86
2023/02/15 01:05:42;;;;;;;21.53;13.97;;;;;;;0.58;100.00;151518.59;5013061;28;20663;-86
2023/02/15 01:08:10;;;;;;;20.53;14.83;;;;;;;0.57;100.00;151516.00;4994494;28;21030;-86
2023/02/15 01:10:38;;;;;;;20.80;14.60;;;;;;;0.53;100.00;151507.00;5003282;28;20468;-85
2023/02/15 01:13:05;;;;;;;21.23;14.77;;;;;;;0.54;100.00;151508.28;4996277;28;20815;-86
2023/02/15 01:15:35;;;;;;;19.83;14.23;;;;;;;0.51;100.00;151500.56;5012511;28;20469;-86
2023/02/15 01:18:02;;;;;;;20.77;15.10;;;;;;;0.51;100.00;151500.56;4990992;28;20463;-86
2023/02/15 01:20:29;;;;;;;21.03;14.97;;;;;;;0.54;100.00;151509.59;5005937;28;20450;-85
2023/02/15 01:22:58;;;;;;;21.20;15.10;;;;;;;0.64;100.00;151533.94;5003438;28;20462;-86
2023/02/15 01:25:26;;;;;;;21.00;14.93;;;;;;;0.77;100.00;151567.34;4995056;28;21020;-85
2023/02/15 01:27:53;;;;;;;19.97;14.63;;;;;;;0.85;100.00;151587.88;4974557;28;20457;-85
2023/02/15 01:30:19;;;;;;;23.07;14.80;;;;;;;0.82;100.00;151578.94;4995686;28;20540;-85
2023/02/15 01:32:46;;;;;;;24.90;16.80;;;;;;;0.80;100.00;151575.03;4994434;28;20462;-85
2023/02/15 01:35:13;;;;;;;21.43;15.80;;;;;;;0.81;100.00;151577.63;4995628;28;20513;-85
2023/02/15 01:37:39;;;;;;;20.80;15.00;;;;;;;0.83;100.00;151582.75;4997252;28;20670;-85
2023/02/15 01:40:10;;;;;;;21.90;15.67;;;;;;;0.76;100.00;151564.81;4995962;28;20528;-85
2023/02/15 01:42:38;;;;;;;20.53;14.50;;;;;;;0.73;100.00;151557.09;5014654;28;20604;-85
2023/02/15 01:45:06;;;;;;;22.10;14.70;;;;;;;0.68;100.00;151542.97;4978864;28;20473;-85
2023/02/15 01:47:37;;;;;;;20.70;15.60;;;;;;;0.61;100.00;151526.25;4998818;28;20516;-85
2023/02/15 01:50:09;;;;;;;19.50;13.80;;;;;;;0.54;100.00;151508.28;4976943;28;20474;-85
2023/02/15 01:52:38;;;;;;;19.93;14.13;;;;;;;0.48;100.00;151492.88;5007787;28;20500;-85
2023/02/15 01:55:06;;;;;;;21.77;14.00;;;;;;;0.42;100.00;151477.50;4995593;28;20492;-85
2023/02/15 01:57:33;;;;;;;19.23;13.83;;;;;;;0.37;100.00;151464.66;4993195;28;20453;-85
2023/02/15 02:00:03;;;;;;;21.83;15.00;;;;;;;0.37;100.00;151464.66;5002474;28;20733;-85
2023/02/15 02:02:39;;;;;;;20.70;15.30;;;;;;;0.35;100.00;151459.50;5010748;28;20445;-84
2023/02/15 02:05:08;;;;;;;23.83;15.90;;;;;;;0.33;100.00;151454.38;5010903;28;20509;-85
2023/02/15 02:07:38;;;;;;;19.00;14.20;;;;;;;0.29;100.00;151444.13;4987437;28;20449;-85
2023/02/15 02:10:07;;;;;;;23.70;15.47;;;;;;;0.27;100.00;151438.97;4989024;28;20902;-85
2023/02/15 02:12:34;;;;;;;22.80;15.53;;;;;;;0.25;100.00;151435.13;4979883;28;20507;-84
2023/02/15 02:15:02;;;;;;;24.63;16.50;;;;;;;0.25;100.00;151435.13;4993850;28;20515;-85
2023/02/15 02:17:35;;;;;;;21.37;15.37;;;;;;;0.23;100.00;151428.72;4992971;28;20486;-84
2023/02/15 02:20:20;;;;;;;23.57;16.13;;;;;;;0.25;100.00;151433.84;4994906;28;20536;-84
2023/02/15 02:23:20;;;;;;;19.40;14.20;;;;;;;0.23;100.00;151428.72;4994737;28;20536;-85
2023/02/15 02:26:19;;;;;;;20.63;15.97;;;;;;;0.22;100.00;151426.13;4950998;28;20579;-84
2023/02/15 02:29:12;;;;;;;21.03;15.30;;;;;;;0.21;100.00;151423.59;4993747;28;20426;-85
2023/02/15 02:31:49;;;;;;;22.73;15.50;;;;;;;0.23;100.00;151430.00;4977014;28;20814;-85
2023/02/15 02:34:18;;;;;;;22.70;16.97;;;;;;;0.25;100.00;151435.13;4993283;28;20549;-84
2023/02/15 02:36:50;;;;;;;19.80;15.07;;;;;;;0.28;100.00;151441.53;5005662;28;20476;-85
2023/02/15 02:39:24;;;;;;;20.87;15.67;;;;;;;0.24;100.00;151431.28;5009297;28;20453;-84
2023/02/15 02:41:57;;;;;;;21.47;15.77;;;;;;;0.20;100.00;151421.00;4992851;28;21040;-84
2023/02/15 02:44:26;;;;;;;17.17;14.70;;;;;;;0.18;100.00;151415.88;5010004;28;20963;-84
2023/02/15 02:46:56;;;;;;;27.07;16.47;;;;;;;0.17;100.00;151413.28;4988055;28;20463;-84
2023/02/15 02:49:35;;;;;;;19.90;14.47;;;;;;;0.16;100.00;151412.00;5003247;28;20995;-84
2023/02/15 02:52:03;;;;;;;22.67;16.20;;;;;;;0.14;100.00;151405.59;4991427;28;20535;-85
2023/02/15 02:54:34;;;;;;;24.23;16.00;;;;;;;0.11;100.00;151397.94;4976478;28;20448;-84
2023/02/15 02:57:04;;;;;;;20.50;15.97;;;;;;;0.09;100.00;151392.75;4973310;28;20458;-84
2023/02/15 02:59:33;;;;;;;18.47;14.43;;;;;;;0.04;100.00;151379.94;4992164;28;20944;-84
2023/02/15 03:02:04;;;;;;;22.77;15.77;;;;;;;0.01;100.00;151373.53;4978066;28;20478;-84
2023/02/15 03:04:36;;;;;;;21.73;14.40;;;;;;;0.03;100.00;151378.63;4959828;28;20569;-84
2023/02/15 03:07:06;;;;;;;24.47;16.13;;;;;;;0.04;100.00;151381.22;4994390;28;20447;-84
2023/02/15 03:09:41;;;;;;;20.50;14.50;;;;;;;0.03;100.00;151378.63;4976953;28;20546;-84
2023/02/15 03:12:09;;;;;;;23.23;16.70;;;;;;;0.05;100.00;151383.81;4980329;28;20450;-84
2023/02/15 03:14:40;;;;;;;23.47;16.20;;;;;;;0.08;100.00;151390.22;5005262;28;20559;-84
2023/02/15 03:17:07;;;;;;;23.37;16.33;;;;;;;0.20;100.00;151421.00;4983953;28;20466;-84
2023/02/15 03:19:37;;;;;;;26.97;17.93;;;;;;;0.23;100.00;151428.72;4973010;28;20856;-84
2023/02/15 03:22:09;;;;;;;21.37;16.40;;;;;;;0.23;100.00;151428.72;4993159;28;20494;-85
2023/02/15 03:24:40;;;;;;;21.53;15.67;;;;;;;0.19;100.00;151418.41;4991674;28;20461;-84
2023/02/15 03:27:17;;;;;;;20.23;15.73;;;;;;;0.26;100.00;151436.41;4984209;28;20458;-84
2023/02/15 03:29:46;;;;;;;21.87;16.20;;;;;;;0.18;100.00;151417.19;4990342;28;20440;-84
2023/02/15 03:32:14;;;;;;;24.67;16.87;;;;;;;0.09;100.00;151394.06;4990552;28;20560;-84
2023/02/15 03:34:42;;;;;;;22.77;16.93;;;;;;;0.06;100.00;151385.06;5008292;28;20460;-84
2023/02/15 03:37:12;;;;;;;23.77;16.80;;;;;;;-0.01;100.00;151368.41;5003085;28;20492;-84
2023/02/15 03:39:42;;;;;;;25.53;17.60;;;;;;;-0.06;100.00;151356.88;4993430;28;20982;-84
2023/02/15 03:42:12;;;;;;;21.00;16.50;;;;;;;0.01;100.00;151373.53;4992886;28;20437;-84
2023/02/15 03:44:45;;;;;;;23.30;16.20;;;;;;;-0.06;100.00;151355.56;4993570;28;20449;-84
2023/02/15 03:47:14;;;;;;;22.90;16.90;;;;;;;-0.09;100.00;151349.16;5005173;28;20455;-84
2023/02/15 03:49:45;;;;;;;21.50;15.47;;;;;;;-0.07;100.00;151354.28;4974326;28;20485;-84
2023/02/15 03:52:12;;;;;;;23.60;16.77;;;;;;;-0.13;100.00;151338.88;4994774;28;20936;-84
2023/02/15 03:54:45;;;;;;;22.77;15.77;;;;;;;-0.20;100.00;151320.91;4996307;28;20471;-84
2023/02/15 04:03:05;;;;;;;22.50;15.47;;;;;;;-0.33;100.00;151287.56;4999533;28;20446;-84
2023/02/15 04:05:33;;;;;;;22.90;15.27;;;;;;;-0.37;100.00;151277.28;5006211;28;20499;-84
2023/02/15 04:08:00;;;;;;;18.67;15.03;;;;;;;-0.35;100.00;151282.44;4977113;28;20815;-84
2023/02/15 04:13:11;;;;;;;21.57;14.83;;;;;;;-0.40;100.00;151269.63;4978693;28;20467;-84
2023/02/15 04:26:41;;;;;;;21.27;15.17;;;;;;;-0.44;100.00;151259.34;4998772;28;20448;-84
2023/02/15 04:29:08;;;;;;;21.27;14.80;;;;;;;-0.41;100.00;151265.75;5004894;28;20442;-84
2023/02/15 04:31:34;;;;;;;23.40;15.97;;;;;;;-0.44;100.00;151258.03;4974684;28;20463;-84
2023/02/15 04:34:01;;;;;;;24.70;15.90;;;;;;;-0.50;100.00;151243.94;4970086;28;20465;-84
2023/02/15 04:36:29;;;;;;;20.57;15.13;;;;;;;-0.53;100.00;151236.22;4989312;28;20574;-84
2023/02/15 04:38:56;;;;;;;19.40;13.70;;;;;;;-0.57;100.00;151226.00;4991433;28;20449;-84
2023/02/15 04:41:23;;;;;;;19.37;14.60;;;;;;;-0.57;100.00;151224.69;4989134;28;20461;-84
2023/02/15 04:43:49;;;;;;;24.03;16.30;;;;;;;-0.57;100.00;151224.69;4991970;28;20500;-84
2023/02/15 04:46:16;;;;;;;18.37;14.53;;;;;;;-0.61;100.00;151215.75;4982120;28;20480;-84
2023/02/15 04:48:43;;;;;;;24.50;16.33;;;;;;;-0.58;100.00;151223.41;4994681;28;20464;-84
2023/02/15 04:51:10;;;;;;;19.07;14.67;;;;;;;-0.53;100.00;151235.00;4993463;28;20796;-84
2023/02/15 04:53:38;;;;;;;24.00;15.73;;;;;;;-0.58;100.00;151222.16;4991050;28;20450;-84
2023/02/15 04:56:05;;;;;;;22.10;16.30;;;;;;;-0.52;100.00;151238.81;5009888;28;20490;-84
2023/02/15 04:58:31;;;;;;;22.83;16.37;;;;;;;-0.51;100.00;151241.41;4990712;28;20485;-84
2023/02/15 05:00:59;;;;;;;24.60;16.43;;;;;;;-0.53;100.00;151236.22;4973771;28;20453;-84
2023/02/15 05:03:25;;;;;;;23.13;16.60;;;;;;;-0.50;100.00;151242.69;4993611;28;20456;-83
2023/02/15 05:05:52;;;;;;;23.77;16.60;;;;;;;-0.50;100.00;151243.94;4998482;28;20460;-84
2023/02/15 05:08:19;;;;;;;26.23;16.30;;;;;;;-0.56;100.00;151228.59;5010187;28;20555;-84
2023/02/15 05:10:48;;;;;;;23.83;18.13;;;;;;;-0.55;100.00;151231.13;4988680;28;20452;-84
2023/02/15 05:13:15;;;;;;;27.67;19.10;;;;;;;-0.53;100.00;151236.22;4989844;28;20543;-84
2023/02/15 05:15:42;;;;;;;24.77;18.53;;;;;;;-0.52;100.00;151237.53;4971847;28;20559;-84
2023/02/15 05:18:08;;;;;;;24.23;17.23;;;;;;;-0.61;100.00;151215.75;5005641;28;20447;-84
2023/02/15 05:20:35;;;;;;;22.37;17.37;;;;;;;-0.58;100.00;151222.16;4993190;28;20456;-84
2023/02/15 05:23:02;;;;;;;22.40;17.50;;;;;;;-0.55;100.00;151231.13;4994067;28;20460;-84
2023/02/15 05:28:23;;;;;;;22.70;17.70;;;;;;;-0.52;100.00;151238.81;5014191;28;20792;-84
2023/02/15 05:30:51;;;;;;;24.90;16.90;;;;;;;-0.57;100.00;151226.00;4994665;28;20455;-84
2023/02/15 05:33:18;;;;;;;21.53;17.90;;;;;;;-0.60;100.00;151218.28;4989010;28;20528;-84
2023/02/15 05:35:44;;;;;;;22.10;16.83;;;;;;;-0.54;100.00;151232.41;4977468;28;20477;-84
2023/02/15 05:38:11;;;;;;;19.93;17.03;;;;;;;-0.55;100.00;151231.13;5013650;28;20455;-84
2023/02/15 05:40:38;;;;;;;26.33;17.20;;;;;;;-0.56;100.00;151228.59;5009745;28;20495;-84
2023/02/15 05:43:04;;;;;;;23.20;16.53;;;;;;;-0.57;100.00;151224.69;4992682;28;20807;-84
2023/02/15 05:45:33;;;;;;;22.37;16.90;;;;;;;-0.62;100.00;151214.47;4995852;28;20530;-84
2023/02/15 05:47:59;;;;;;;24.50;16.73;;;;;;;-0.63;100.00;151211.88;4979802;28;20480;-84
2023/02/15 05:50:26;;;;;;;22.30;15.90;;;;;;;-0.69;100.00;151195.25;4994816;28;20448;-83
2023/02/15 05:52:53;;;;;;;22.27;16.60;;;;;;;-0.76;100.00;151178.53;4992157;28;20453;-84
2023/02/15 05:55:20;;;;;;;24.27;17.33;;;;;;;-0.71;100.00;151190.06;4990516;28;20449;-84
2023/02/15 05:57:47;;;;;;;26.23;17.53;;;;;;;-0.79;100.00;151170.84;5009963;28;20460;-84
2023/02/15 06:00:15;;;;;;;24.90;17.77;;;;;;;-0.80;100.00;151167.00;4989091;28;20896;-83
2023/02/15 06:02:43;;;;;;;25.30;15.87;;;;;;;-0.76;100.00;151178.53;4990780;28;20545;-84
2023/02/15 06:05:10;;;;;;;24.47;17.03;;;;;;;-0.72;100.00;151187.53;4992279;28;20463;-84
2023/02/15 06:07:36;;;;;;;22.40;15.97;;;;;;;-0.71;100.00;151190.06;5006378;28;20824;-84
2023/02/15 06:10:04;;;;;;;21.70;15.70;;;;;;;-0.73;100.00;151184.94;5001442;28;20458;-84
2023/02/15 06:12:30;;;;;;;23.00;15.80;;;;;;;-0.78;100.00;151173.44;4987744;28;20465;-84
2023/02/15 06:14:57;;;;;;;21.07;16.20;;;;;;;-0.83;100.00;151159.31;4992304;28;20466;-83
2023/02/15 06:17:24;;;;;;;24.73;16.40;;;;;;;-0.84;100.00;151156.72;4999651;28;20575;-83
2023/02/15 06:19:52;;;;;;;21.83;15.93;;;;;;;-0.77;100.00;151174.72;4989212;28;20452;-84
2023/02/15 06:22:20;;;;;;;21.43;15.13;;;;;;;-0.76;100.00;151177.25;4999079;28;20460;-84
2023/02/15 06:24:46;;;;;;;24.03;16.53;;;;;;;-0.84;100.00;151156.72;4989925;28;20471;-84
2023/02/15 06:27:13;;;;;;;22.67;16.10;;;;;;;-0.90;100.00;151141.38;4989108;28;20935;-84
2023/02/15 06:29:40;;;;;;;22.73;15.77;;;;;;;-0.89;100.00;151143.91;5000629;28;20464;-83
2023/02/15 06:32:07;;;;;;;23.70;15.97;;;;;;;-0.89;100.00;151143.91;4988657;28;20483;-84
2023/02/15 06:34:33;;;;;;;22.00;15.37;;;;;;;-0.89;100.00;151143.91;4988869;28;20524;-83
2023/02/15 06:37:01;;;;;;;20.70;15.03;;;;;;;-0.89;100.00;151145.22;4990042;28;20512;-84
2023/02/15 06:39:28;;;;;;;24.60;15.23;;;;;;;-0.88;100.00;151147.78;4988475;28;20477;-83
2023/02/15 06:41:55;;;;;;;20.63;15.60;;;;;;;-0.85;100.00;151155.44;4999254;28;20466;-84
2023/02/15 06:44:21;;;;;;;18.43;15.30;;;;;;;-0.84;100.00;151158.03;4997392;28;20473;-83
2023/02/15 06:46:48;;;;;;;22.30;14.77;;;;;;;-0.80;100.00;151168.31;4979402;28;20896;-83
2023/02/15 06:49:15;;;;;;;20.10;14.77;;;;;;;-0.74;100.00;151182.38;4987414;28;20449;-83
2023/02/15 06:51:41;;;;;;;21.83;14.60;;;;;;;-0.68;100.00;151197.78;4989924;28;20464;-84
2023/02/15 06:54:10;;;;;;;20.60;14.33;;;;;;;-0.60;100.00;151218.28;4966445;28;20539;-84
2023/02/15 06:56:36;;;;;;;20.23;14.17;;;;;;;-0.49;100.00;151245.22;4987486;28;20528;-84
2023/02/15 06:59:03;;;;;;;25.27;16.23;;;;;;;-0.36;100.00;151279.88;4998496;28;20461;-84
2023/02/15 07:01:30;;;;;;;26.60;16.60;;;;;;;-0.19;100.00;151323.50;4960931;28;20460;-84
2023/02/15 07:03:56;;;;;;;21.27;16.30;;;;;;;-0.05;100.00;151358.09;4985595;28;20449;-84
2023/02/15 07:06:23;;;;;;;22.60;16.40;;;;;;;0.15;100.00;151408.19;4995938;28;20471;-84
2023/02/15 07:08:50;;;;;;;20.77;15.73;;;;;;;0.38;100.00;151468.50;4989389;28;20450;-84
2023/02/15 07:14:02;;;;;;;24.40;16.73;;;;;;;0.92;100.00;151605.91;4988172;28;20480;-84
2023/02/15 07:16:29;;;;;;;21.97;15.73;;;;;;;1.20;100.00;151677.81;4984496;28;20485;-84
2023/02/15 07:18:55;;;;;;;22.27;17.03;;;;;;;1.52;100.00;151757.44;5000017;28;20548;-84
2023/02/15 07:21:22;;;;;;;24.10;18.03;;;;;;;1.76;100.00;151819.13;4987601;28;20785;-84
2023/02/15 07:23:49;;;;;;;24.23;16.93;;;;;;;1.95;100.00;151866.69;4987784;28;20859;-84
2023/02/15 07:26:15;;;;;;;21.27;16.90;;;;;;;2.19;100.00;151929.72;4998449;28;20456;-84
2023/02/15 07:28:44;;;;;;;23.10;16.60;;;;;;;2.35;100.00;151970.84;4983355;28;20462;-84
2023/02/15 07:31:10;;;;;;;21.70;16.77;;;;;;;2.65;100.00;152045.44;4988550;28;20454;-84
2023/02/15 07:33:37;;;;;;;23.27;16.57;;;;;;;2.85;100.00;152096.88;5002796;28;20538;-85
2023/02/15 07:36:05;;;;;;;20.53;15.17;;;;;;;2.92;100.00;152114.88;4985326;28;20494;-84
2023/02/15 07:38:34;;;;;;;25.37;16.47;;;;;;;2.83;100.00;152091.75;4987390;28;20459;-85
2023/02/15 07:41:01;;;;;;;22.17;16.00;;;;;;;2.86;100.00;152099.47;4988868;28;21158;-84
2023/02/15 07:43:29;;;;;;;21.80;15.80;;;;;;;2.90;100.00;152111.03;4986636;28;20954;-84
2023/02/15 07:45:59;;;;;;;20.90;15.30;;;;;;;2.83;100.00;152091.75;4983356;28;20450;-85
2023/02/15 07:48:26;;;;;;;18.57;14.87;;;;;;;2.86;100.00;152099.47;4983795;28;20487;-84
2023/02/15 07:50:53;;;;;;;24.13;16.03;;;;;;;2.85;100.00;152096.88;4985954;28;20442;-84
2023/02/15 07:53:20;;;;;;;20.33;14.53;;;;;;;3.12;99.53;152166.38;4997353;28;20937;-84
2023/02/15 07:55:46;;;;;;;21.90;16.00;;;;;;;3.29;98.77;152208.81;4997363;28;20450;-84
2023/02/15 07:58:13;;;;;;;20.70;15.00;;;;;;;3.30;99.26;152212.69;4984953;28;20443;-85
2023/02/15 08:03:26;;;;;;;23.40;14.70;;;;;;;3.61;99.33;152292.47;4999065;28;20543;-85
2023/02/15 08:05:57;;;;;;;20.77;16.00;;;;;;;3.69;97.83;152311.78;4993634;28;20467;-85
2023/02/15 08:08:32;;;;;;;21.80;16.17;;;;;;;3.94;98.26;152374.88;4985460;28;20444;-85
2023/02/15 08:13:58;;;;;;;23.93;16.70;;;;;;;4.14;96.60;152427.69;4987360;28;20448;-85
2023/02/15 08:16:27;;;;;;;17.60;13.90;;;;;;;4.26;96.16;152457.31;4981598;28;20475;-85
2023/02/15 08:18:55;;;;;;;21.23;15.60;;;;;;;4.37;97.15;152485.63;4992222;28;20482;-85
2023/02/15 08:21:23;;;;;;;19.17;14.43;;;;;;;4.41;96.87;152495.94;4997322;28;21321;-85
2023/02/15 08:23:49;;;;;;;20.10;15.60;;;;;;;4.51;97.56;152521.69;4995151;28;20551;-85
2023/02/15 08:26:16;;;;;;;19.63;15.97;;;;;;;4.35;94.57;152480.47;4986301;28;20454;-85
2023/02/15 08:28:43;;;;;;;18.70;15.07;;;;;;;4.20;95.61;152441.84;4990197;28;20962;-85
2023/02/15 08:31:12;;;;;;;19.60;15.10;;;;;;;4.26;94.88;152457.31;4979394;28;20555;-85
2023/02/15 08:33:40;;;;;;;18.37;15.37;;;;;;;4.23;93.52;152449.59;4982763;28;20448;-86
2023/02/15 08:36:10;;;;;;;21.20;16.40;;;;;;;3.87;94.72;152358.13;4997416;28;21038;-86
2023/02/15 08:38:37;;;;;;;26.70;16.50;;;;;;;3.62;95.85;152293.78;4985141;28;20480;-86
2023/02/15 08:41:16;;;;;;;19.77;15.70;;;;;;;3.64;96.66;152300.22;4998391;28;20534;-86
2023/02/15 08:43:43;;;;;;;21.80;16.87;;;;;;;3.73;95.50;152320.81;4965803;28;20945;-86
2023/02/15 08:46:11;;;;;;;20.33;15.60;;;;;;;3.56;96.04;152279.63;4982431;28;20445;-87
2023/02/15 08:48:38;;;;;;;23.47;16.90;;;;;;;3.72;95.46;152318.22;5001653;28;20554;-87
2023/02/15 08:51:11;;;;;;;17.47;14.00;;;;;;;3.82;95.61;152343.97;4989103;28;20511;-87
2023/02/15 08:53:39;;;;;;;17.93;15.33;;;;;;;3.52;95.65;152269.28;4988621;28;20464;-87
2023/02/15 08:56:06;;;;;;;19.00;14.83;;;;;;;3.39;96.88;152234.59;4987615;28;20451;-86
2023/02/15 08:58:33;;;;;;;19.13;15.07;;;;;;;3.13;97.46;152168.91;4989103;28;20897;-87
2023/02/15 09:01:01;;;;;;;21.37;17.50;;;;;;;3.06;98.57;152150.91;4991916;28;20458;-86
2023/02/15 09:03:28;;;;;;;21.17;17.07;;;;;;;3.14;98.87;152170.22;4999088;28;20449;-86
2023/02/15 09:05:59;;;;;;;23.90;17.67;;;;;;;3.48;97.99;152259.00;4975684;28;20821;-86
2023/02/15 09:08:27;;;;;;;21.83;16.83;;;;;;;3.55;97.48;152277.03;4983964;28;20455;-86
2023/02/15 09:10:54;;;;;;;19.03;16.30;;;;;;;3.46;97.91;152253.88;4990017;28;20462;-85
2023/02/15 09:13:21;;;;;;;24.37;17.20;;;;;;;3.60;96.70;152289.88;5003288;28;20535;-85
2023/02/15 09:15:48;;;;;;;23.50;17.87;;;;;;;3.60;96.23;152289.88;4988997;28;20471;-85
2023/02/15 09:18:16;;;;;;;22.63;17.20;;;;;;;3.74;95.94;152323.34;4989977;28;20464;-85
2023/02/15 09:20:44;;;;;;;23.70;17.07;;;;;;;3.73;96.18;152320.81;4972437;28;20461;-85
2023/02/15 09:23:11;;;;;;;21.97;16.83;;;;;;;3.58;95.82;152283.47;4970719;28;20467;-85
2023/02/15 09:25:39;;;;;;;22.33;17.13;;;;;;;3.68;96.21;152310.50;5001353;28;20458;-85
2023/02/15 09:28:06;;;;;;;21.53;16.53;;;;;;;3.68;95.61;152310.50;5004218;28;20505;-85
2023/02/15 09:30:32;;;;;;;20.00;15.60;;;;;;;3.64;96.09;152300.22;5001999;28;20884;-85
2023/02/15 09:32:59;;;;;;;20.87;16.30;;;;;;;3.50;96.69;152264.16;5004840;28;20551;-85
2023/02/15 09:35:26;;;;;;;23.77;18.70;;;;;;;3.49;97.84;152260.31;5007652;28;20820;-85
2023/02/15 09:37:52;;;;;;;20.67;16.97;;;;;;;3.53;97.72;152271.88;4966840;28;20541;-85
2023/02/15 09:40:19;;;;;;;22.87;17.37;;;;;;;3.69;97.00;152313.09;4990740;28;20963;-85
2023/02/15 09:43:09;;;;;;;21.90;18.20;;;;;;;3.98;96.48;152386.47;4990554;28;20460;-85
2023/02/15 09:45:46;;;;;;;22.50;17.20;;;;;;;3.85;95.01;152351.69;5002589;28;20460;-85
2023/02/15 09:48:30;;;;;;;23.83;17.10;;;;;;;3.73;96.49;152322.13;4998744;28;20870;-85
2023/02/15 09:51:07;;;;;;;23.43;18.57;;;;;;;3.75;96.32;152327.25;5001607;28;20449;-85
2023/02/15 09:53:47;;;;;;;23.40;18.50;;;;;;;3.90;96.43;152364.56;5004679;28;20451;-84
2023/02/15 09:56:19;;;;;;;22.53;17.50;;;;;;;3.91;96.16;152368.47;5000351;28;20829;-85
2023/02/15 09:58:54;;;;;;;24.50;19.10;;;;;;;4.00;95.70;152390.31;4999270;28;20533;-85
2023/02/15 10:01:26;;;;;;;23.87;18.80;;;;;;;3.92;95.08;152369.75;4998890;28;20461;-85
2023/02/15 10:04:10;;;;;;;27.60;19.27;;;;;;;3.93;95.02;152373.59;4998809;28;20470;-85
2023/02/15 10:06:44;;;;;;;23.80;18.83;;;;;;;4.05;95.91;152403.22;4987947;28;20535;-85
2023/02/15 10:09:21;;;;;;;23.60;18.83;;;;;;;4.18;95.65;152436.72;5004240;28;20447;-85
2023/02/15 10:11:59;;;;;;;21.60;18.00;;;;;;;4.62;94.93;152548.75;5001966;28;20503;-85
2023/02/15 10:14:48;;;;;;;27.80;19.83;;;;;;;4.63;92.89;152552.59;4990906;28;20443;-85
2023/02/15 10:17:28;;;;;;;23.50;19.17;;;;;;;4.60;93.30;152544.91;4984870;28;21104;-85
2023/02/15 10:20:05;;;;;;;22.40;18.37;;;;;;;4.49;93.58;152515.25;4971029;28;20874;-85
2023/02/15 10:22:38;;;;;;;23.20;19.00;;;;;;;4.83;93.81;152602.88;4983474;28;20856;-85
2023/02/15 10:25:20;;;;;;;24.90;19.97;;;;;;;5.04;92.35;152655.69;4980460;28;20493;-85
2023/02/15 10:27:48;;;;;;;24.63;17.47;;;;;;;5.04;93.12;152655.69;4981609;28;20873;-85
2023/02/15 10:30:20;;;;;;;23.17;17.40;;;;;;;5.13;91.77;152678.94;4969443;28;20864;-85
2023/02/15 10:32:53;;;;;;;24.60;18.73;;;;;;;5.17;90.97;152689.22;4981740;28;20464;-85
2023/02/15 10:35:24;;;;;;;22.20;18.87;;;;;;;5.22;92.01;152702.09;4969438;28;20593;-84
2023/02/15 10:38:05;;;;;;;24.27;19.43;;;;;;;5.25;91.44;152709.84;4970656;28;20489;-85
2023/02/15 10:40:40;;;;;;;27.53;19.73;;;;;;;5.42;90.74;152753.69;4969515;28;20961;-84
2023/02/15 10:43:17;;;;;;;25.00;18.00;;;;;;;5.59;90.83;152797.50;4980171;28;20476;-84
2023/02/15 10:45:53;;;;;;;21.97;18.33;;;;;;;5.66;89.87;152815.59;4947131;28;20454;-85
2023/02/15 10:48:47;;;;;;;22.07;18.43;;;;;;;5.86;89.89;152867.22;4951636;28;20496;-85
2023/02/15 10:51:17;;;;;;;21.73;19.40;;;;;;;6.02;88.50;152908.50;4970907;28;20796;-85
2023/02/15 10:54:04;;;;;;;28.20;19.23;;;;;;;5.96;88.64;152891.69;4988553;28;20537;-85
2023/02/15 10:56:35;;;;;;;24.67;19.80;;;;;;;5.90;89.00;152877.56;4981390;28;20485;-85
2023/02/15 10:59:13;;;;;;;22.03;18.60;;;;;;;5.80;89.44;152851.66;4982631;28;20892;-85
2023/02/15 11:01:44;;;;;;;24.23;18.90;;;;;;;5.85;89.68;152864.63;4968507;28;20488;-85
2023/02/15 11:04:44;;;;;;;22.00;18.37;;;;;;;5.87;88.85;152869.81;4970271;28;20450;-85
2023/02/15 11:07:17;;;;;;;21.87;18.27;;;;;;;6.11;86.24;152931.72;4976870;28;20909;-85
2023/02/15 11:09:47;;;;;;;22.07;18.80;;;;;;;6.25;85.71;152965.28;4979006;28;21223;-85
2023/02/15 11:12:18;;;;;;;24.17;19.23;;;;;;;6.44;85.91;153014.28;4979232;28;20556;-85
2023/02/15 11:14:49;;;;;;;23.53;17.87;;;;;;;6.56;85.39;153045.25;4963539;28;20468;-85
2023/02/15 11:17:19;;;;;;;21.97;19.57;;;;;;;6.41;84.93;153006.53;4961946;28;20475;-85
2023/02/15 11:19:55;;;;;;;23.00;20.50;;;;;;;6.33;85.98;152985.91;4978769;28;20783;-85
2023/02/15 11:22:22;;;;;;;25.10;18.30;;;;;;;6.38;85.12;152998.81;4969727;28;21253;-86
2023/02/15 11:24:49;;;;;;;26.73;18.97;;;;;;;6.68;83.88;153076.22;4978370;28;20865;-85
2023/02/15 11:27:21;;;;;;;24.73;21.00;;;;;;;6.56;83.96;153045.25;4979492;28;20890;-85
2023/02/15 11:29:58;;;;;;;23.17;19.57;;;;;;;6.52;83.03;153036.22;4969414;28;20442;-85
2023/02/15 11:32:27;;;;;;;20.80;17.37;;;;;;;6.57;83.46;153047.81;4982561;28;20457;-86
2023/02/15 11:34:57;;;;;;;32.10;18.57;;;;;;;6.70;83.26;153081.38;4968718;28;20896;-85
2023/02/15 11:37:29;;;;;;;26.57;20.30;;;;;;;6.85;83.92;153120.13;4961892;28;20474;-86
2023/02/15 11:39:56;;;;;;;24.60;19.23;;;;;;;6.86;83.59;153121.44;4979114;28;20453;-86
2023/02/15 11:42:24;;;;;;;22.23;19.63;;;;;;;6.90;82.16;153133.03;4965545;28;21566;-79
2023/02/15 11:44:57;;;;;;;25.10;21.13;;;;;;;6.78;82.08;153102.03;4983212;28;20990;-78
2023/02/15 11:47:25;;;;;;;23.07;20.27;;;;;;;6.78;81.74;153102.03;4964733;28;20976;-78
2023/02/15 11:49:52;;;;;;;26.30;21.03;;;;;;;6.89;81.40;153130.44;4978002;28;20458;-78
2023/02/15 11:52:19;;;;;;;27.77;20.90;;;;;;;6.89;81.37;153129.13;4956521;28;20454;-78